sensor_id;sensor_type;location;lat;lon;timestamp;pressure;altitude;pressure_sealevel;temperature;humidity
47883;BME280;37739;50.350;7.578;2023-02-28T00:01:08;100883.38;;;1.84;64.29
47883;BME280;37739;50.350;7.578;2023-02-28T00:03:33;100896.81;;;1.83;64.69
47883;BME280;37739;50.350;7.578;2023-02-28T00:06:06;100892.91;;;1.87;64.88
47883;BME280;37739;50.350;7.578;2023-02-28T00:08:31;100894.84;;;2.00;63.98
47883;BME280;37739;50.350;7.578;2023-02-28T00:11:07;100888.78;;;1.79;64.51
47883;BME280;37739;50.350;7.578;2023-02-28T00:13:34;100890.38;;;1.68;65.24
47883;BME280;37739;50.350;7.578;2023-02-28T00:16:09;100888.03;;;1.80;64.73
47883;BME280;37739;50.350;7.578;2023-02-28T00:18:38;100884.69;;;1.89;64.42
47883;BME280;37739;50.350;7.578;2023-02-28T00:21:04;100888.19;;;1.81;64.29
47883;BME280;37739;50.350;7.578;2023-02-28T00:23:34;100886.44;;;1.90;64.58
47883;BME280;37739;50.350;7.578;2023-02-28T00:26:00;100881.47;;;1.82;64.08
47883;BME280;37739;50.350;7.578;2023-02-28T00:28:29;100881.94;;;1.59;65.27
47883;BME280;37739;50.350;7.578;2023-02-28T00:30:55;100879.09;;;1.64;65.15
47883;BME280;37739;50.350;7.578;2023-02-28T00:33:23;100889.19;;;1.64;65.04
47883;BME280;37739;50.350;7.578;2023-02-28T00:35:48;100886.31;;;1.51;65.71
47883;BME280;37739;50.350;7.578;2023-02-28T00:38:19;100892.72;;;1.47;65.88
47883;BME280;37739;50.350;7.578;2023-02-28T00:40:49;100891.63;;;1.54;65.51
47883;BME280;37739;50.350;7.578;2023-02-28T00:43:14;100899.16;;;1.44;66.35
47883;BME280;37739;50.350;7.578;2023-02-28T00:45:39;100893.34;;;1.45;65.91
47883;BME280;37739;50.350;7.578;2023-02-28T00:48:05;100894.88;;;1.43;65.86
47883;BME280;37739;50.350;7.578;2023-02-28T00:50:31;100891.63;;;1.54;65.76
47883;BME280;37739;50.350;7.578;2023-02-28T00:52:58;100895.19;;;1.37;66.29
47883;BME280;37739;50.350;7.578;2023-02-28T00:55:23;100891.38;;;1.23;66.65
47883;BME280;37739;50.350;7.578;2023-02-28T00:57:51;100894.50;;;1.29;66.92
47883;BME280;37739;50.350;7.578;2023-02-28T01:00:17;100900.72;;;1.33;66.93
47883;BME280;37739;50.350;7.578;2023-02-28T01:02:44;100894.50;;;1.29;66.21
47883;BME280;37739;50.350;7.578;2023-02-28T01:05:10;100894.25;;;1.45;65.88
47883;BME280;37739;50.350;7.578;2023-02-28T01:07:35;100895.75;;;1.43;65.81
47883;BME280;37739;50.350;7.578;2023-02-28T01:10:00;100888.91;;;1.42;65.92
47883;BME280;37739;50.350;7.578;2023-02-28T01:12:28;100893.88;;;1.32;66.80
47883;BME280;37739;50.350;7.578;2023-02-28T01:14:53;100895.03;;;1.35;65.75
47883;BME280;37739;50.350;7.578;2023-02-28T01:17:19;100889.84;;;1.34;66.44
47883;BME280;37739;50.350;7.578;2023-02-28T01:19:44;100892.09;;;1.31;66.10
47883;BME280;37739;50.350;7.578;2023-02-28T01:22:12;100886.88;;;1.10;67.38
47883;BME280;37739;50.350;7.578;2023-02-28T01:24:37;100888.94;;;1.06;67.21
47883;BME280;37739;50.350;7.578;2023-02-28T01:27:05;100895.78;;;1.07;66.93
47883;BME280;37739;50.350;7.578;2023-02-28T01:29:30;100888.53;;;1.01;67.12
47883;BME280;37739;50.350;7.578;2023-02-28T01:31:55;100892.03;;;0.84;68.32
47883;BME280;37739;50.350;7.578;2023-02-28T01:34:24;100894.38;;;0.91;67.49
47883;BME280;37739;50.350;7.578;2023-02-28T01:36:49;100884.09;;;0.98;67.24
47883;BME280;37739;50.350;7.578;2023-02-28T01:39:15;100893.53;;;0.82;67.49
47883;BME280;37739;50.350;7.578;2023-02-28T01:41:40;100893.53;;;0.82;68.02
47883;BME280;37739;50.350;7.578;2023-02-28T01:44:54;100895.94;;;0.72;67.95
47883;BME280;37739;50.350;7.578;2023-02-28T01:46:52;100897.44;;;0.70;67.89
47883;BME280;37739;50.350;7.578;2023-02-28T01:49:18;100891.59;;;0.80;67.87
47883;BME280;37739;50.350;7.578;2023-02-28T01:51:50;100895.06;;;0.71;67.61
47883;BME280;37739;50.350;7.578;2023-02-28T01:54:24;100889.97;;;0.80;67.44
47883;BME280;37739;50.350;7.578;2023-02-28T01:59:39;100881.66;;;0.72;67.40
47883;BME280;37739;50.350;7.578;2023-02-28T02:02:15;100882.44;;;0.71;67.73
47883;BME280;37739;50.350;7.578;2023-02-28T02:04:46;100886.72;;;0.72;67.29
47883;BME280;37739;50.350;7.578;2023-02-28T02:07:18;100880.66;;;0.62;67.86
47883;BME280;37739;50.350;7.578;2023-02-28T02:09:43;100886.72;;;0.72;67.48
47883;BME280;37739;50.350;7.578;2023-02-28T02:17:49;100874.16;;;0.91;66.15
47883;BME280;37739;50.350;7.578;2023-02-28T02:20:46;100872.66;;;1.02;66.08
47883;BME280;37739;50.350;7.578;2023-02-28T02:23:22;100870.13;;;1.02;65.79
47883;BME280;37739;50.350;7.578;2023-02-28T02:25:55;100871.47;;;0.98;65.70
47883;BME280;37739;50.350;7.578;2023-02-28T02:37:29;100860.50;;;0.89;66.08
47883;BME280;37739;50.350;7.578;2023-02-28T02:40:22;100864.53;;;0.87;65.83
47883;BME280;37739;50.350;7.578;2023-02-28T02:42:52;100873.00;;;0.88;65.99
47883;BME280;37739;50.350;7.578;2023-02-28T02:45:32;100863.75;;;0.88;65.51
47883;BME280;37739;50.350;7.578;2023-02-28T02:48:02;100868.09;;;0.89;65.49
47883;BME280;37739;50.350;7.578;2023-02-28T02:50:39;100865.81;;;0.92;65.36
47883;BME280;37739;50.350;7.578;2023-02-28T02:53:08;100864.25;;;0.84;66.04
47883;BME280;37739;50.350;7.578;2023-02-28T02:55:38;100856.41;;;0.81;65.73
47883;BME280;37739;50.350;7.578;2023-02-28T02:58:08;100868.72;;;0.78;65.58
47883;BME280;37739;50.350;7.578;2023-02-28T03:00:41;100873.78;;;0.69;66.51
47883;BME280;37739;50.350;7.578;2023-02-28T03:03:11;100872.91;;;0.69;66.79
47883;BME280;37739;50.350;7.578;2023-02-28T03:05:52;100875.75;;;0.72;66.21
47883;BME280;37739;50.350;7.578;2023-02-28T03:08:17;100879.91;;;0.71;66.56
47883;BME280;37739;50.350;7.578;2023-02-28T03:10:48;100876.16;;;0.76;65.67
47883;BME280;37739;50.350;7.578;2023-02-28T03:25:00;100864.56;;;0.33;66.68
47883;BME280;37739;50.350;7.578;2023-02-28T03:27:49;100866.75;;;0.48;65.99
47883;BME280;37739;50.350;7.578;2023-02-28T03:30:26;100864.38;;;0.49;66.42
47883;BME280;37739;50.350;7.578;2023-02-28T03:35:31;100865.97;;;0.57;65.80
47883;BME280;37739;50.350;7.578;2023-02-28T03:38:08;100871.47;;;0.62;64.91
47883;BME280;37739;50.350;7.578;2023-02-28T03:40:43;100868.22;;;0.54;65.57
47883;BME280;37739;50.350;7.578;2023-02-28T03:43:13;100874.81;;;0.35;66.22
47883;BME280;37739;50.350;7.578;2023-02-28T03:45:45;100876.56;;;0.45;66.05
47883;BME280;37739;50.350;7.578;2023-02-28T03:48:23;100872.81;;;0.50;65.44
47883;BME280;37739;50.350;7.578;2023-02-28T03:50:54;100870.50;;;0.43;65.38
47883;BME280;37739;50.350;7.578;2023-02-28T03:53:30;100874.47;;;0.49;65.49
47883;BME280;37739;50.350;7.578;2023-02-28T03:56:19;100878.19;;;0.53;65.43
47883;BME280;37739;50.350;7.578;2023-02-28T04:01:48;100881.16;;;0.40;65.49
47883;BME280;37739;50.350;7.578;2023-02-28T04:04:14;100878.22;;;0.35;66.02
47883;BME280;37739;50.350;7.578;2023-02-28T04:06:41;100881.50;;;0.26;66.49
47883;BME280;37739;50.350;7.578;2023-02-28T04:09:08;100879.47;;;0.04;66.69
47883;BME280;37739;50.350;7.578;2023-02-28T04:11:40;100884.19;;;0.18;66.70
47883;BME280;37739;50.350;7.578;2023-02-28T04:14:08;100882.81;;;0.31;65.93
47883;BME280;37739;50.350;7.578;2023-02-28T04:16:35;100880.59;;;0.34;65.55
47883;BME280;37739;50.350;7.578;2023-02-28T04:19:03;100878.22;;;0.35;65.62
47883;BME280;37739;50.350;7.578;2023-02-28T04:21:32;100882.41;;;0.26;65.44
47883;BME280;37739;50.350;7.578;2023-02-28T04:23:58;100875.88;;;0.19;66.19
47883;BME280;37739;50.350;7.578;2023-02-28T04:26:30;100880.63;;;0.25;65.91
47883;BME280;37739;50.350;7.578;2023-02-28T04:28:55;100874.50;;;0.32;66.00
47883;BME280;37739;50.350;7.578;2023-02-28T04:31:21;100877.19;;;0.25;65.60
47883;BME280;37739;50.350;7.578;2023-02-28T04:33:51;100872.91;;;0.24;65.73
47883;BME280;37739;50.350;7.578;2023-02-28T04:36:16;100871.72;;;0.20;66.31
47883;BME280;37739;50.350;7.578;2023-02-28T04:38:50;100882.88;;;0.05;66.71
47883;BME280;37739;50.350;7.578;2023-02-28T04:41:18;100884.66;;;0.14;66.76
47883;BME280;37739;50.350;7.578;2023-02-28T04:43:45;100882.00;;;0.04;66.56
47883;BME280;37739;50.350;7.578;2023-02-28T04:46:13;100878.28;;;0.01;66.69
47883;BME280;37739;50.350;7.578;2023-02-28T04:48:44;100879.91;;;0.09;66.22
47883;BME280;37739;50.350;7.578;2023-02-28T04:51:12;100883.31;;;0.18;66.12
47883;BME280;37739;50.350;7.578;2023-02-28T04:53:44;100884.34;;;0.20;65.74
47883;BME280;37739;50.350;7.578;2023-02-28T04:56:15;100887.31;;;0.16;65.91
47883;BME280;37739;50.350;7.578;2023-02-28T04:58:41;100878.59;;;-0.05;66.60
47883;BME280;37739;50.350;7.578;2023-02-28T05:01:23;100880.34;;;-0.04;66.62
47883;BME280;37739;50.350;7.578;2023-02-28T05:03:50;100881.25;;;-0.04;66.84
47883;BME280;37739;50.350;7.578;2023-02-28T05:06:16;100884.38;;;0.03;66.18
47883;BME280;37739;50.350;7.578;2023-02-28T05:08:42;100887.03;;;0.04;66.52
47883;BME280;37739;50.350;7.578;2023-02-28T05:11:19;100891.47;;;0.07;65.90
47883;BME280;37739;50.350;7.578;2023-02-28T05:13:50;100886.44;;;0.07;66.31
47883;BME280;37739;50.350;7.578;2023-02-28T05:16:16;100889.09;;;-0.01;66.12
47883;BME280;37739;50.350;7.578;2023-02-28T05:18:42;100894.31;;;0.01;66.05
47883;BME280;37739;50.350;7.578;2023-02-28T05:23:53;100894.59;;;-0.05;65.08
47883;BME280;37739;50.350;7.578;2023-02-28T05:26:19;100892.22;;;-0.12;65.20
47883;BME280;37739;50.350;7.578;2023-02-28T05:28:47;100891.34;;;-0.04;65.03
47883;BME280;37739;50.350;7.578;2023-02-28T05:31:15;100896.25;;;-0.05;65.14
47883;BME280;37739;50.350;7.578;2023-02-28T05:33:40;100899.50;;;0.03;65.28
47883;BME280;37739;50.350;7.578;2023-02-28T05:36:08;100898.75;;;0.04;64.96
47883;BME280;37739;50.350;7.578;2023-02-28T05:38:36;100898.91;;;-0.04;64.77
47883;BME280;37739;50.350;7.578;2023-02-28T05:41:05;100892.53;;;-0.17;65.19
47883;BME280;37739;50.350;7.578;2023-02-28T05:43:31;100899.34;;;-0.16;64.71
47883;BME280;37739;50.350;7.578;2023-02-28T05:46:01;100896.97;;;-0.24;65.46
47883;BME280;37739;50.350;7.578;2023-02-28T05:48:26;100899.03;;;-0.20;65.39
47883;BME280;37739;50.350;7.578;2023-02-28T05:50:54;100896.41;;;-0.38;66.09
47883;BME280;37739;50.350;7.578;2023-02-28T05:53:22;100894.91;;;-0.36;66.11
47883;BME280;37739;50.350;7.578;2023-02-28T05:55:50;100903.78;;;-0.31;65.64
47883;BME280;37739;50.350;7.578;2023-02-28T05:58:17;100901.75;;;-0.27;65.51
47883;BME280;37739;50.350;7.578;2023-02-28T06:00:46;100910.50;;;-0.23;64.66
47883;BME280;37739;50.350;7.578;2023-02-28T06:03:11;100908.69;;;-0.24;64.79
47883;BME280;37739;50.350;7.578;2023-02-28T06:05:39;100904.25;;;-0.18;65.03
47883;BME280;37739;50.350;7.578;2023-02-28T06:08:09;100898.31;;;-0.27;64.90
47883;BME280;37739;50.350;7.578;2023-02-28T06:10:34;100908.69;;;-0.24;64.40
47883;BME280;37739;50.350;7.578;2023-02-28T06:13:01;100905.59;;;-0.30;64.91
47883;BME280;37739;50.350;7.578;2023-02-28T06:15:28;100907.66;;;-0.26;64.66
47883;BME280;37739;50.350;7.578;2023-02-28T06:17:56;100906.03;;;-0.26;64.39
47883;BME280;37739;50.350;7.578;2023-02-28T06:20:23;100908.25;;;-0.29;64.48
47883;BME280;37739;50.350;7.578;2023-02-28T06:22:51;100909.44;;;-0.25;64.10
47883;BME280;37739;50.350;7.578;2023-02-28T06:25:17;100902.94;;;-0.23;63.64
47883;BME280;37739;50.350;7.578;2023-02-28T06:27:42;100906.91;;;-0.25;64.03
47883;BME280;37739;50.350;7.578;2023-02-28T06:30:11;100912.25;;;-0.40;64.31
47883;BME280;37739;50.350;7.578;2023-02-28T06:32:39;100918.31;;;-0.37;64.52
47883;BME280;37739;50.350;7.578;2023-02-28T06:35:05;100915.38;;;-0.25;64.24
47883;BME280;37739;50.350;7.578;2023-02-28T06:37:31;100921.19;;;-0.17;63.67
47883;BME280;37739;50.350;7.578;2023-02-28T06:39:59;100923.53;;;-0.18;64.05
47883;BME280;37739;50.350;7.578;2023-02-28T06:42:24;100926.81;;;-0.11;63.97
47883;BME280;37739;50.350;7.578;2023-02-28T06:44:56;100926.94;;;-0.35;63.79
47883;BME280;37739;50.350;7.578;2023-02-28T06:47:24;100934.38;;;-0.28;64.49
47883;BME280;37739;50.350;7.578;2023-02-28T06:49:49;100926.97;;;-0.09;64.19
47883;BME280;37739;50.350;7.578;2023-02-28T06:52:17;100930.81;;;-0.04;63.83
47883;BME280;37739;50.350;7.578;2023-02-28T06:54:42;100935.56;;;-0.25;63.88
47883;BME280;37739;50.350;7.578;2023-02-28T06:57:08;100941.16;;;-0.27;64.54
47883;BME280;37739;50.350;7.578;2023-02-28T06:59:33;100937.94;;;-0.26;64.62
47883;BME280;37739;50.350;7.578;2023-02-28T07:02:00;100943.72;;;-0.18;63.95
47883;BME280;37739;50.350;7.578;2023-02-28T07:04:27;100942.97;;;-0.09;63.30
47883;BME280;37739;50.350;7.578;2023-02-28T07:06:55;100951.28;;;-0.10;63.15
47883;BME280;37739;50.350;7.578;2023-02-28T07:09:26;100944.31;;;-0.12;63.63
47883;BME280;37739;50.350;7.578;2023-02-28T07:11:55;100945.47;;;-0.17;63.38
47883;BME280;37739;50.350;7.578;2023-02-28T07:14:23;100956.03;;;-0.13;63.58
47883;BME280;37739;50.350;7.578;2023-02-28T07:16:53;100950.81;;;-0.32;63.95
47883;BME280;37739;50.350;7.578;2023-02-28T07:19:21;100954.69;;;-0.27;63.38
47883;BME280;37739;50.350;7.578;2023-02-28T07:21:46;100956.66;;;-0.15;63.97
47883;BME280;37739;50.350;7.578;2023-02-28T07:24:11;100949.50;;;-0.11;62.79
47883;BME280;37739;50.350;7.578;2023-02-28T07:26:37;100952.00;;;-0.37;63.49
47883;BME280;37739;50.350;7.578;2023-02-28T07:29:06;100952.00;;;-0.20;63.92
47883;BME280;37739;50.350;7.578;2023-02-28T07:31:34;100957.81;;;-0.03;63.01
47883;BME280;37739;50.350;7.578;2023-02-28T07:34:04;100963.31;;;0.10;62.75
47883;BME280;37739;50.350;7.578;2023-02-28T07:36:29;100963.47;;;0.03;62.91
47883;BME280;37739;50.350;7.578;2023-02-28T07:38:54;100960.78;;;-0.07;63.06
47883;BME280;37739;50.350;7.578;2023-02-28T07:41:21;100967.59;;;-0.06;63.18
47883;BME280;37739;50.350;7.578;2023-02-28T07:43:49;100963.31;;;0.10;63.14
47883;BME280;37739;50.350;7.578;2023-02-28T07:46:16;100962.59;;;0.03;63.11
47883;BME280;37739;50.350;7.578;2023-02-28T07:48:42;100959.75;;;-0.09;63.02
47883;BME280;37739;50.350;7.578;2023-02-28T07:51:07;100964.06;;;0.01;63.28
47883;BME280;37739;50.350;7.578;2023-02-28T07:53:35;100961.06;;;0.13;63.26
47883;BME280;37739;50.350;7.578;2023-02-28T07:56:01;100963.75;;;0.15;62.29
47883;BME280;37739;50.350;7.578;2023-02-28T07:58:29;100959.44;;;0.23;62.67
47883;BME280;37739;50.350;7.578;2023-02-28T08:00:55;100956.19;;;0.15;62.49
47883;BME280;37739;50.350;7.578;2023-02-28T08:03:23;100951.56;;;0.28;62.13
47883;BME280;37739;50.350;7.578;2023-02-28T08:05:51;100955.56;;;0.44;62.11
47883;BME280;37739;50.350;7.578;2023-02-28T08:08:17;100952.28;;;0.53;61.36
47883;BME280;37739;50.350;7.578;2023-02-28T08:10:45;100951.38;;;0.62;61.35
47883;BME280;37739;50.350;7.578;2023-02-28T08:13:17;100948.28;;;0.55;60.39
47883;BME280;37739;50.350;7.578;2023-02-28T08:15:45;100950.94;;;0.66;60.74
47883;BME280;37739;50.350;7.578;2023-02-28T08:18:14;100945.53;;;0.80;60.08
47883;BME280;37739;50.350;7.578;2023-02-28T08:20:40;100947.97;;;0.61;60.28
47883;BME280;37739;50.350;7.578;2023-02-28T08:23:05;100945.91;;;0.57;60.30
47883;BME280;37739;50.350;7.578;2023-02-28T08:25:30;100945.59;;;0.54;59.62
47883;BME280;37739;50.350;7.578;2023-02-28T08:27:55;100952.09;;;0.69;60.40
47883;BME280;37739;50.350;7.578;2023-02-28T08:30:21;100945.06;;;0.84;59.95
47883;BME280;37739;50.350;7.578;2023-02-28T08:32:49;100943.00;;;0.89;59.73
47883;BME280;37739;50.350;7.578;2023-02-28T08:35:14;100936.69;;;1.03;59.29
47883;BME280;37739;50.350;7.578;2023-02-28T08:37:42;100943.84;;;0.98;58.53
47883;BME280;37739;50.350;7.578;2023-02-28T08:40:08;100934.44;;;1.06;57.88
47883;BME280;37739;50.350;7.578;2023-02-28T08:42:36;100931.75;;;1.13;58.74
47883;BME280;37739;50.350;7.578;2023-02-28T08:45:01;100932.50;;;1.12;57.56
47883;BME280;37739;50.350;7.578;2023-02-28T08:47:26;100926.91;;;1.25;57.49
47883;BME280;37739;50.350;7.578;2023-02-28T08:49:54;100929.88;;;1.29;57.09
47883;BME280;37739;50.350;7.578;2023-02-28T08:52:21;100927.63;;;1.32;55.03
47883;BME280;37739;50.350;7.578;2023-02-28T08:54:49;100934.88;;;1.38;53.73
47883;BME280;37739;50.350;7.578;2023-02-28T08:57:14;100934.31;;;1.60;54.23
47883;BME280;37739;50.350;7.578;2023-02-28T08:59:40;100935.91;;;1.68;53.87
47883;BME280;37739;50.350;7.578;2023-02-28T09:02:09;100928.59;;;1.90;54.04
47883;BME280;37739;50.350;7.578;2023-02-28T09:04:40;100931.25;;;2.10;53.12
47883;BME280;37739;50.350;7.578;2023-02-28T09:07:06;100936.41;;;2.31;52.61
47883;BME280;37739;50.350;7.578;2023-02-28T09:09:31;100932.66;;;2.36;51.84
47883;BME280;37739;50.350;7.578;2023-02-28T09:11:57;100930.06;;;2.45;51.72
47883;BME280;37739;50.350;7.578;2023-02-28T09:14:25;100921.34;;;2.03;50.88
47883;BME280;37739;50.350;7.578;2023-02-28T09:16:52;100927.22;;;1.93;51.11
47883;BME280;37739;50.350;7.578;2023-02-28T09:19:18;100926.94;;;2.09;51.70
47883;BME280;37739;50.350;7.578;2023-02-28T09:21:45;100922.56;;;2.17;50.47
47883;BME280;37739;50.350;7.578;2023-02-28T09:24:13;100919.97;;;2.26;50.23
47883;BME280;37739;50.350;7.578;2023-02-28T09:26:40;100926.50;;;2.43;49.82
47883;BME280;37739;50.350;7.578;2023-02-28T09:29:05;100917.53;;;2.86;50.02
47883;BME280;37739;50.350;7.578;2023-02-28T09:31:31;100911.06;;;2.79;48.34
47883;BME280;37739;50.350;7.578;2023-02-28T09:33:58;100915.34;;;2.80;47.65
47883;BME280;37739;50.350;7.578;2023-02-28T09:36:25;100917.16;;;2.91;48.43
47883;BME280;37739;50.350;7.578;2023-02-28T09:38:51;100913.88;;;2.53;47.85
47883;BME280;37739;50.350;7.578;2023-02-28T09:41:22;100925.78;;;2.93;48.71
47883;BME280;37739;50.350;7.578;2023-02-28T09:43:56;100922.41;;;3.44;47.26
47883;BME280;37739;50.350;7.578;2023-02-28T09:46:40;100910.25;;;3.30;46.17
47883;BME280;37739;50.350;7.578;2023-02-28T09:49:11;100914.03;;;3.04;46.69
47883;BME280;37739;50.350;7.578;2023-02-28T09:51:50;100911.88;;;3.09;45.97
47883;BME280;37739;50.350;7.578;2023-02-28T09:54:21;100907.94;;;3.12;46.36
47883;BME280;37739;50.350;7.578;2023-02-28T09:56:52;100907.56;;;3.39;44.98
47883;BME280;37739;50.350;7.578;2023-02-28T10:05:22;100908.34;;;3.89;45.22
47883;BME280;37739;50.350;7.578;2023-02-28T10:15:55;100918.38;;;3.36;44.25
47883;BME280;37739;50.350;7.578;2023-02-28T10:18:25;100922.91;;;4.02;44.23
47883;BME280;37739;50.350;7.578;2023-02-28T10:20:55;100920.34;;;4.55;43.87
47883;BME280;37739;50.350;7.578;2023-02-28T10:23:35;100926.13;;;4.31;43.04
47883;BME280;37739;50.350;7.578;2023-02-28T10:26:21;100905.69;;;4.84;43.00
47883;BME280;37739;50.350;7.578;2023-02-28T10:28:51;100900.28;;;4.69;42.63
47883;BME280;37739;50.350;7.578;2023-02-28T10:31:20;100895.81;;;4.55;41.96
47883;BME280;37739;50.350;7.578;2023-02-28T10:33:47;100901.78;;;4.56;42.71
47883;BME280;37739;50.350;7.578;2023-02-28T10:36:16;100899.31;;;4.89;42.76
47883;BME280;37739;50.350;7.578;2023-02-28T10:38:43;100909.06;;;5.17;42.45
47883;BME280;37739;50.350;7.578;2023-02-28T10:41:15;100908.53;;;5.55;41.03
47883;BME280;37739;50.350;7.578;2023-02-28T10:43:43;100912.31;;;5.60;40.23
47883;BME280;37739;50.350;7.578;2023-02-28T10:49:01;100906.13;;;5.92;39.35
47883;BME280;37739;50.350;7.578;2023-02-28T10:51:37;100914.56;;;5.91;38.95
47883;BME280;37739;50.350;7.578;2023-02-28T10:54:06;100914.06;;;6.19;39.75
47883;BME280;37739;50.350;7.578;2023-02-28T10:56:41;100916.72;;;6.20;38.80
47883;BME280;37739;50.350;7.578;2023-02-28T10:59:27;100899.63;;;6.19;38.35
47883;BME280;37739;50.350;7.578;2023-02-28T11:01:53;100902.94;;;6.54;38.09
47883;BME280;37739;50.350;7.578;2023-02-28T11:06:56;100900.53;;;6.43;38.37
47883;BME280;37739;50.350;7.578;2023-02-28T11:09:31;100899.97;;;6.36;38.59
47883;BME280;37739;50.350;7.578;2023-02-28T11:12:00;100894.34;;;6.16;38.62
47883;BME280;37739;50.350;7.578;2023-02-28T11:14:32;100888.03;;;6.11;38.52
47883;BME280;37739;50.350;7.578;2023-02-28T11:17:13;100889.63;;;6.58;38.10
47883;BME280;37739;50.350;7.578;2023-02-28T11:19:45;100885.34;;;6.21;36.98
47883;BME280;37739;50.350;7.578;2023-02-28T11:22:18;100887.69;;;6.18;38.24
47883;BME280;37739;50.350;7.578;2023-02-28T11:24:48;100883.56;;;6.44;37.66
47883;BME280;37739;50.350;7.578;2023-02-28T11:27:44;100879.06;;;6.16;37.57
47883;BME280;37739;50.350;7.578;2023-02-28T11:30:38;100871.25;;;6.50;37.51
47883;BME280;37739;50.350;7.578;2023-02-28T11:33:28;100884.19;;;6.65;37.33
47883;BME280;37739;50.350;7.578;2023-02-28T11:36:02;100879.59;;;6.00;37.58
47883;BME280;37739;50.350;7.578;2023-02-28T11:38:31;100881.25;;;6.12;38.51
47883;BME280;37739;50.350;7.578;2023-02-28T11:44:09;100871.00;;;6.96;36.73
47883;BME280;37739;50.350;7.578;2023-02-28T11:46:52;100875.47;;;6.86;36.90
47883;BME280;37739;50.350;7.578;2023-02-28T11:49:57;100882.16;;;7.10;35.78
47883;BME280;37739;50.350;7.578;2023-02-28T11:55:20;100876.09;;;6.96;36.22
47883;BME280;37739;50.350;7.578;2023-02-28T12:07:00;100860.78;;;7.21;35.41
47883;BME280;37739;50.350;7.578;2023-02-28T12:09:42;100854.53;;;7.04;36.55
47883;BME280;37739;50.350;7.578;2023-02-28T12:17:46;100867.28;;;7.29;34.82
47883;BME280;37739;50.350;7.578;2023-02-28T12:29:01;100859.63;;;6.42;36.57
47883;BME280;37739;50.350;7.578;2023-02-28T12:31:36;100854.91;;;6.60;35.92
47883;BME280;37739;50.350;7.578;2023-02-28T12:34:07;100854.56;;;6.67;35.84
47883;BME280;37739;50.350;7.578;2023-02-28T12:36:36;100857.91;;;6.54;34.95
47883;BME280;37739;50.350;7.578;2023-02-28T12:44:28;100861.78;;;7.23;34.41
47883;BME280;37739;50.350;7.578;2023-02-28T12:47:04;100853.06;;;7.84;33.92
47883;BME280;37739;50.350;7.578;2023-02-28T12:49:38;100855.44;;;7.30;33.79
47883;BME280;37739;50.350;7.578;2023-02-28T12:52:06;100846.66;;;7.64;34.09
47883;BME280;37739;50.350;7.578;2023-02-28T12:54:49;100844.69;;;7.60;34.09
47883;BME280;37739;50.350;7.578;2023-02-28T12:57:33;100851.13;;;7.42;34.11
47883;BME280;37739;50.350;7.578;2023-02-28T13:00:25;100848.63;;;7.82;33.75
47883;BME280;37739;50.350;7.578;2023-02-28T13:06:00;100833.47;;;8.25;33.18
47883;BME280;37739;50.350;7.578;2023-02-28T13:11:02;100848.00;;;7.46;35.07
47883;BME280;37739;50.350;7.578;2023-02-28T13:13:29;100848.16;;;8.01;33.24
47883;BME280;37739;50.350;7.578;2023-02-28T13:20:58;100844.09;;;7.64;33.03
47883;BME280;37739;50.350;7.578;2023-02-28T13:26:05;100840.34;;;7.46;34.08
47883;BME280;37739;50.350;7.578;2023-02-28T13:29:01;100840.53;;;7.36;33.81
47883;BME280;37739;50.350;7.578;2023-02-28T13:31:29;100845.31;;;7.06;34.87
47883;BME280;37739;50.350;7.578;2023-02-28T13:36:23;100847.78;;;7.81;34.31
47883;BME280;37739;50.350;7.578;2023-02-28T13:46:28;100833.25;;;7.42;34.37
47883;BME280;37739;50.350;7.578;2023-02-28T13:48:55;100831.59;;;7.56;34.89
47883;BME280;37739;50.350;7.578;2023-02-28T13:51:42;100828.75;;;7.38;34.13
47883;BME280;37739;50.350;7.578;2023-02-28T13:57:33;100827.41;;;6.67;35.80
47883;BME280;37739;50.350;7.578;2023-02-28T14:05:20;100831.50;;;6.65;35.84
47883;BME280;37739;50.350;7.578;2023-02-28T14:07:52;100831.50;;;5.93;37.19
47883;BME280;37739;50.350;7.578;2023-02-28T14:10:29;100829.38;;;5.64;38.18
47883;BME280;37739;50.350;7.578;2023-02-28T14:17:58;100830.34;;;5.42;38.47
47883;BME280;37739;50.350;7.578;2023-02-28T14:20:29;100818.25;;;5.16;38.87
47883;BME280;37739;50.350;7.578;2023-02-28T14:23:19;100821.59;;;5.27;38.62
47883;BME280;37739;50.350;7.578;2023-02-28T14:26:11;100823.97;;;5.47;38.80
47883;BME280;37739;50.350;7.578;2023-02-28T14:34:58;100822.66;;;5.76;38.68
47883;BME280;37739;50.350;7.578;2023-02-28T14:37:30;100818.44;;;5.53;39.00
47883;BME280;37739;50.350;7.578;2023-02-28T14:39:57;100818.06;;;5.48;39.37
47883;BME280;37739;50.350;7.578;2023-02-28T14:42:34;100813.06;;;5.26;39.88
47883;BME280;37739;50.350;7.578;2023-02-28T14:45:04;100810.84;;;5.19;40.51
47883;BME280;37739;50.350;7.578;2023-02-28T14:47:33;100808.41;;;5.21;40.52
47883;BME280;37739;50.350;7.578;2023-02-28T14:50:03;100804.13;;;5.20;40.95
47883;BME280;37739;50.350;7.578;2023-02-28T14:52:31;100807.28;;;5.17;40.93
47883;BME280;37739;50.350;7.578;2023-02-28T14:54:59;100807.00;;;5.24;41.08
47883;BME280;37739;50.350;7.578;2023-02-28T14:57:27;100806.44;;;5.28;40.88
47883;BME280;37739;50.350;7.578;2023-02-28T15:02:40;100799.78;;;5.19;41.18
47883;BME280;37739;50.350;7.578;2023-02-28T15:05:30;100805.31;;;4.79;41.14
47883;BME280;37739;50.350;7.578;2023-02-28T15:08:12;100805.16;;;4.66;41.64
47883;BME280;37739;50.350;7.578;2023-02-28T15:10:43;100811.81;;;4.76;41.94
47883;BME280;37739;50.350;7.578;2023-02-28T15:13:13;100798.69;;;4.81;41.26
47883;BME280;37739;50.350;7.578;2023-02-28T15:21:08;100804.28;;;4.99;41.72
47883;BME280;37739;50.350;7.578;2023-02-28T15:23:37;100809.28;;;4.76;41.98
47883;BME280;37739;50.350;7.578;2023-02-28T15:26:07;100809.88;;;4.61;41.89
47883;BME280;37739;50.350;7.578;2023-02-28T15:28:35;100820.41;;;4.66;42.63
47883;BME280;37739;50.350;7.578;2023-02-28T15:31:25;100805.97;;;4.55;42.31
47883;BME280;37739;50.350;7.578;2023-02-28T15:33:55;100817.19;;;4.46;42.62
47883;BME280;37739;50.350;7.578;2023-02-28T15:36:28;100819.91;;;4.60;42.43